Time;durP1;ratioP1;P1;durP2;ratioP2;P2;SDS_P1;SDS_P2;PMS_P1;PMS_P2;Temp;Humidity;BMP_temperature;BMP_pressure;BME280_temperature;BME280_humidity;BME280_pressure;Samples;Min_cycle;Max_cycle;Signal;HPM_P1;HPM_P2
2021/01/24 00:00:49;;;;;;;;;;;;;;;17.68;58.30;99322.25;4914403;29;1550;-71
2021/01/24 00:03:19;;;;;;;;;;;;;;;17.66;58.38;99315.44;4924541;29;1630;-71
2021/01/24 00:05:45;;;;;;;;;;;;;;;17.66;58.39;99324.13;4922404;29;1547;-70
2021/01/24 00:08:11;;;;;;;;;;;;;;;17.69;58.34;99316.00;4927153;29;1311;-70
2021/01/24 00:10:38;;;;;;;;;;;;;;;17.66;58.41;99312.78;4923637;29;1636;-70
2021/01/24 00:13:05;;;;;;;;;;;;;;;17.62;58.22;99312.19;4925642;29;1292;-70
2021/01/24 00:15:31;;;;;;;;;;;;;;;17.62;58.31;99312.19;4930577;29;1988;-71
2021/01/24 00:17:58;;;;;;;;;;;;;;;17.60;58.52;99302.72;4930864;29;1271;-71
2021/01/24 00:20:25;;;;;;;;;;;;;;;17.64;58.19;99314.69;4930884;29;1858;-71
2021/01/24 00:22:51;;;;;;;;;;;;;;;17.61;58.55;99317.53;4930568;29;1387;-71
2021/01/24 00:25:18;;;;;;;;;;;;;;;17.60;58.38;99300.09;4930769;29;788;-71
2021/01/24 00:27:44;;;;;;;;;;;;;;;17.61;58.45;99285.94;4930217;29;1288;-71
2021/01/24 00:30:11;;;;;;;;;;;;;;;17.57;58.39;99274.78;4914388;29;1164;-70
2021/01/24 00:32:38;;;;;;;;;;;;;;;17.61;58.54;99284.16;4913759;29;1329;-70
2021/01/24 00:35:06;;;;;;;;;;;;;;;17.57;58.32;99287.97;4932164;29;1939;-70
2021/01/24 00:37:32;;;;;;;;;;;;;;;17.58;58.29;99260.69;4914796;29;1250;-71
2021/01/24 00:39:59;;;;;;;;;;;;;;;17.60;58.36;99256.13;4929456;29;1183;-70
2021/01/24 00:42:25;;;;;;;;;;;;;;;17.57;58.42;99243.19;4914173;29;1407;-70
2021/01/24 00:44:51;;;;;;;;;;;;;;;17.56;58.49;99257.34;4914406;29;1333;-71
2021/01/24 00:47:18;;;;;;;;;;;;;;;17.55;58.35;99262.72;4931697;29;1001;-70
2021/01/24 00:49:44;;;;;;;;;;;;;;;17.56;58.62;99273.13;4931846;29;1290;-71
2021/01/24 00:52:10;;;;;;;;;;;;;;;17.54;58.43;99267.09;4931590;29;1061;-70
2021/01/24 00:54:36;;;;;;;;;;;;;;;17.54;58.39;99266.28;4931968;29;1907;-70
2021/01/24 00:57:03;;;;;;;;;;;;;;;17.53;58.61;99257.53;4931320;29;1046;-70
2021/01/24 00:59:29;;;;;;;;;;;;;;;17.54;58.41;99261.81;4931500;29;1332;-70
2021/01/24 01:01:56;;;;;;;;;;;;;;;17.51;58.80;99259.44;4914295;29;1337;-70
2021/01/24 01:04:23;;;;;;;;;;;;;;;17.48;58.67;99257.03;4931537;29;1307;-70
2021/01/24 01:06:49;;;;;;;;;;;;;;;17.48;58.53;99257.88;4931452;29;1187;-69
2021/01/24 01:09:16;;;;;;;;;;;;;;;17.48;58.63;99268.41;4931629;29;1284;-69
2021/01/24 01:11:42;;;;;;;;;;;;;;;17.48;58.67;99257.03;4931303;29;899;-70
2021/01/24 01:14:08;;;;;;;;;;;;;;;17.47;58.83;99260.63;4931303;29;1898;-69
2021/01/24 01:16:34;;;;;;;;;;;;;;;17.48;58.50;99251.75;4931339;29;871;-70
2021/01/24 01:19:01;;;;;;;;;;;;;;;17.45;58.60;99258.09;4931666;29;1371;-69
2021/01/24 01:21:27;;;;;;;;;;;;;;;17.43;58.82;99251.28;4931485;29;859;-69
2021/01/24 01:23:53;;;;;;;;;;;;;;;17.43;58.61;99249.47;4931853;29;1281;-70
2021/01/24 01:26:20;;;;;;;;;;;;;;;17.42;59.07;99231.16;4935403;29;795;-70
2021/01/24 01:28:46;;;;;;;;;;;;;;;17.41;58.84;99219.81;4935754;29;1354;-71
2021/01/24 01:31:12;;;;;;;;;;;;;;;17.40;58.99;99228.66;4935246;29;1194;-70
2021/01/24 01:33:38;;;;;;;;;;;;;;;17.41;58.81;99217.19;4935318;29;1361;-70
2021/01/24 01:36:05;;;;;;;;;;;;;;;17.39;59.09;99220.84;4934598;29;2237;-70
2021/01/24 01:38:31;;;;;;;;;;;;;;;17.41;59.16;99218.97;4917780;29;1332;-71
2021/01/24 01:40:57;;;;;;;;;;;;;;;17.37;59.07;99221.00;4935215;29;909;-71
2021/01/24 01:43:23;;;;;;;;;;;;;;;17.36;59.46;99221.94;4935346;29;1694;-70
2021/01/24 01:45:50;;;;;;;;;;;;;;;17.35;59.35;99224.69;4935058;29;1140;-70
2021/01/24 01:48:17;;;;;;;;;;;;;;;17.38;59.19;99227.94;4917734;29;1334;-70
2021/01/24 01:50:44;;;;;;;;;;;;;;;17.37;59.53;99238.56;4934821;29;815;-70
2021/01/24 01:53:10;;;;;;;;;;;;;;;17.34;59.29;99231.75;4935315;29;1284;-70
2021/01/24 01:55:37;;;;;;;;;;;;;;;17.31;59.41;99233.75;4934754;29;1915;-70
2021/01/24 01:58:12;;;;;;;;;;;;;;;17.36;59.41;99231.63;4934292;29;1379;-70
2021/01/24 02:01:01;;;;;;;;;;;;;;;17.36;59.44;99227.19;4933248;29;1038;-70
2021/01/24 02:03:40;;;;;;;;;;;;;;;17.36;59.12;99215.81;4934069;29;1293;-70
2021/01/24 02:06:23;;;;;;;;;;;;;;;17.31;59.38;99223.22;4902770;29;1163;-71
2021/01/24 02:08:53;;;;;;;;;;;;;;;17.30;59.37;99232.91;4934490;29;1300;-70
2021/01/24 02:11:28;;;;;;;;;;;;;;;17.28;59.76;99228.72;4934296;29;1089;-70
2021/01/24 02:14:05;;;;;;;;;;;;;;;17.32;59.68;99224.91;4933665;29;1335;-69
2021/01/24 02:16:33;;;;;;;;;;;;;;;17.29;59.55;99225.16;4934006;29;811;-70
2021/01/24 02:19:02;;;;;;;;;;;;;;;17.26;59.77;99215.69;4916926;29;1847;-70
2021/01/24 02:21:30;;;;;;;;;;;;;;;17.27;59.75;99224.41;4934238;29;816;-70
2021/01/24 02:23:59;;;;;;;;;;;;;;;17.29;59.82;99217.25;4934329;29;1210;-71
2021/01/24 02:26:25;;;;;;;;;;;;;;;17.27;59.78;99209.47;4934281;29;1264;-70
2021/01/24 02:29:01;;;;;;;;;;;;;;;17.26;59.96;99204.31;4932725;29;1339;-70
2021/01/24 02:31:40;;;;;;;;;;;;;;;17.25;59.93;99208.75;4933570;29;954;-70
2021/01/24 02:34:45;;;;;;;;;;;;;;;17.25;59.70;99214.00;4988699;23;2422;-69
2021/01/24 02:37:47;;;;;;;;;;;;;;;17.25;59.97;99226.31;4890087;29;1360;-70
2021/01/24 02:40:19;;;;;;;;;;;;;;;17.25;59.83;99210.53;4912074;29;1060;-70
2021/01/24 02:43:21;;;;;;;;;;;;;;;17.24;59.98;99212.31;4876291;29;1278;-70
2021/01/24 02:46:07;;;;;;;;;;;;;;;17.22;60.19;99213.41;4911851;29;1076;-71
2021/01/24 02:48:34;;;;;;;;;;;;;;;17.20;59.93;99189.00;4911676;29;1234;-70
2021/01/24 02:51:00;;;;;;;;;;;;;;;17.25;59.62;99208.75;4911821;29;1305;-70
2021/01/24 02:53:28;;;;;;;;;;;;;;;17.24;59.83;99196.53;4912058;29;1349;-70
2021/01/24 02:55:54;;;;;;;;;;;;;;;17.24;59.60;99183.38;4880852;29;1915;-70
2021/01/24 02:58:21;;;;;;;;;;;;;;;17.24;59.65;99193.06;4912251;29;1352;-70
2021/01/24 03:00:47;;;;;;;;;;;;;;;17.24;59.63;99207.06;4911970;29;1223;-70
2021/01/24 03:03:13;;;;;;;;;;;;;;;17.23;59.90;99192.25;4911729;29;1259;-70
2021/01/24 03:05:39;;;;;;;;;;;;;;;17.23;59.64;99196.66;4912024;29;1011;-70
2021/01/24 03:08:06;;;;;;;;;;;;;;;17.19;59.87;99182.03;4929713;29;1238;-70
2021/01/24 03:10:32;;;;;;;;;;;;;;;17.20;60.08;99196.88;4952372;29;1085;-70
2021/01/24 03:13:17;;;;;;;;;;;;;;;17.20;60.04;99178.47;4952647;29;1225;-70
2021/01/24 03:15:44;;;;;;;;;;;;;;;17.19;60.04;99192.56;4952734;29;1919;-70
2021/01/24 03:18:12;;;;;;;;;;;;;;;17.23;60.00;99201.91;4933989;29;1242;-70
2021/01/24 03:20:41;;;;;;;;;;;;;;;17.22;60.32;99160.75;4934837;29;1140;-71
2021/01/24 03:23:08;;;;;;;;;;;;;;;17.20;60.42;99166.16;4951620;28;1335;-71
2021/01/24 03:25:37;;;;;;;;;;;;;;;17.19;60.18;99197.84;4952341;29;1139;-71
2021/01/24 03:28:04;;;;;;;;;;;;;;;17.19;60.31;99168.88;4935013;29;1143;-69
2021/01/24 03:30:30;;;;;;;;;;;;;;;17.20;60.23;99181.94;4951824;29;991;-69
2021/01/24 03:32:57;;;;;;;;;;;;;;;17.19;60.30;99135.53;4934818;29;1605;-70
2021/01/24 03:35:23;;;;;;;;;;;;;;;17.17;60.29;99152.38;4952530;29;1914;-69
2021/01/24 03:37:49;;;;;;;;;;;;;;;17.19;60.13;99134.69;4951850;29;1351;-71
2021/01/24 03:40:15;;;;;;;;;;;;;;;17.18;60.01;99139.09;4952422;29;1049;-71
2021/01/24 03:42:44;;;;;;;;;;;;;;;17.15;60.13;99138.47;4951859;29;1325;-70
2021/01/24 03:45:10;;;;;;;;;;;;;;;17.15;60.02;99136.69;4952218;28;1059;-70
2021/01/24 03:47:36;;;;;;;;;;;;;;;17.17;59.98;99126.06;4933889;29;1202;-69
2021/01/24 03:50:04;;;;;;;;;;;;;;;17.17;60.01;99126.91;4952049;29;914;-71
2021/01/24 03:52:30;;;;;;;;;;;;;;;17.12;59.76;99134.28;4951665;29;1170;-70
2021/01/24 03:54:56;;;;;;;;;;;;;;;17.13;60.01;99133.34;4952014;29;1911;-70
2021/01/24 03:57:23;;;;;;;;;;;;;;;17.13;59.93;99137.78;4951683;29;851;-71
2021/01/24 03:59:51;;;;;;;;;;;;;;;17.14;59.87;99136.81;4934497;29;1393;-70
2021/01/24 04:02:18;;;;;;;;;;;;;;;17.11;60.00;99150.22;4934285;29;1264;-71
2021/01/24 04:04:47;;;;;;;;;;;;;;;17.16;59.75;99148.06;4951743;28;1304;-70
2021/01/24 04:07:13;;;;;;;;;;;;;;;17.13;59.91;99154.41;4951430;29;759;-70
2021/01/24 04:09:40;;;;;;;;;;;;;;;17.12;59.98;99150.09;4951615;29;1226;-70
2021/01/24 04:12:06;;;;;;;;;;;;;;;17.15;59.63;99154.28;4951508;29;748;-69
2021/01/24 04:14:33;;;;;;;;;;;;;;;17.14;59.76;99137.69;4951237;29;1910;-70
2021/01/24 04:17:00;;;;;;;;;;;;;;;17.12;59.58;99129.03;4933832;29;1400;-69
2021/01/24 04:19:26;;;;;;;;;;;;;;;17.10;59.80;99145.91;4934207;29;1250;-70
2021/01/24 04:21:53;;;;;;;;;;;;;;;17.12;59.57;99136.09;4934158;29;811;-69
2021/01/24 04:24:19;;;;;;;;;;;;;;;17.10;59.62;99135.38;4933909;29;1307;-70
2021/01/24 04:26:45;;;;;;;;;;;;;;;17.10;59.68;99148.53;4951143;29;823;-70
2021/01/24 04:29:11;;;;;;;;;;;;;;;17.12;59.63;99157.13;4933814;29;1215;-70
2021/01/24 04:31:37;;;;;;;;;;;;;;;17.11;59.70;99182.63;4950997;29;1061;-71
2021/01/24 04:34:04;;;;;;;;;;;;;;;17.09;59.92;99176.63;4951063;28;1492;-70
2021/01/24 04:36:30;;;;;;;;;;;;;;;17.12;59.67;99186.91;4933661;29;1989;-69
2021/01/24 04:38:56;;;;;;;;;;;;;;;17.11;59.79;99189.69;4933841;29;1331;-70
2021/01/24 04:41:23;;;;;;;;;;;;;;;17.10;59.87;99188.00;4950935;28;792;-70
2021/01/24 04:43:50;;;;;;;;;;;;;;;17.09;59.87;99202.94;4933308;29;1270;-70
2021/01/24 04:46:16;;;;;;;;;;;;;;;17.08;59.75;99216.22;4951010;29;787;-70
2021/01/24 04:48:43;;;;;;;;;;;;;;;17.10;59.71;99227.44;4950745;29;1230;-70
2021/01/24 04:51:10;;;;;;;;;;;;;;;17.07;59.53;99223.25;4950947;28;1229;-70
2021/01/24 04:53:38;;;;;;;;;;;;;;;17.07;59.45;99231.16;4950503;29;1253;-70
2021/01/24 04:56:05;;;;;;;;;;;;;;;17.07;59.63;99228.53;4951226;29;1915;-70
2021/01/24 04:58:34;;;;;;;;;;;;;;;17.09;59.67;99234.50;4951192;28;1298;-70
2021/01/24 05:01:01;;;;;;;;;;;;;;;17.12;59.72;99233.44;4921537;29;1395;-70
2021/01/24 05:03:27;;;;;;;;;;;;;;;17.05;59.98;99237.50;4938205;29;1218;-70
2021/01/24 05:05:53;;;;;;;;;;;;;;;17.08;59.81;99224.94;4958125;28;1415;-70
2021/01/24 05:08:48;;;;;;;;;;;;;;;17.07;59.96;99230.31;4968921;28;1346;-70
2021/01/24 05:11:15;;;;;;;;;;;;;;;17.04;59.86;99226.13;4976616;28;780;-70
2021/01/24 05:13:42;;;;;;;;;;;;;;;17.03;59.88;99220.97;4976341;28;1268;-71
2021/01/24 05:16:08;;;;;;;;;;;;;;;17.02;59.91;99214.03;4976741;28;1910;-70
2021/01/24 05:18:34;;;;;;;;;;;;;;;17.05;59.49;99224.34;4976667;28;1312;-70
2021/01/24 05:21:04;;;;;;;;;;;;;;;17.05;59.95;99224.34;4976754;28;1027;-70
2021/01/24 05:23:30;;;;;;;;;;;;;;;17.01;59.78;99225.50;4976262;28;1214;-71
2021/01/24 05:25:57;;;;;;;;;;;;;;;17.06;59.79;99224.22;4958950;28;1201;-70
2021/01/24 05:28:25;;;;;;;;;;;;;;;17.03;59.92;99256.00;4959153;28;1345;-71
2021/01/24 05:31:02;;;;;;;;;;;;;;;17.06;59.59;99223.34;4959102;28;1213;-71
2021/01/24 05:33:28;;;;;;;;;;;;;;;17.01;60.06;99236.03;4976080;28;1616;-70
2021/01/24 05:35:55;;;;;;;;;;;;;;;17.01;59.73;99221.09;4976574;28;1995;-70
2021/01/24 05:38:22;;;;;;;;;;;;;;;17.05;59.67;99201.50;4958743;28;1304;-70
2021/01/24 05:40:49;;;;;;;;;;;;;;;17.02;59.60;99207.00;4976483;28;1211;-70
2021/01/24 05:43:16;;;;;;;;;;;;;;;17.01;59.90;99214.97;4958497;28;1464;-70
2021/01/24 05:45:42;;;;;;;;;;;;;;;16.99;59.61;99217.75;4976538;28;934;-70
2021/01/24 05:48:09;;;;;;;;;;;;;;;16.97;59.87;99224.03;4976461;28;1351;-70
2021/01/24 05:50:35;;;;;;;;;;;;;;;16.98;59.80;99237.09;4975900;28;1059;-70
2021/01/24 05:53:04;;;;;;;;;;;;;;;17.00;59.58;99263.28;4958794;28;1226;-70
2021/01/24 05:55:32;;;;;;;;;;;;;;;16.96;59.68;99264.47;4975963;28;1934;-70
2021/01/24 05:57:59;;;;;;;;;;;;;;;16.96;59.50;99243.41;4958553;28;1332;-71
2021/01/24 06:00:25;;;;;;;;;;;;;;;16.94;59.57;99252.25;4958150;28;1069;-70
2021/01/24 06:02:52;;;;;;;;;;;;;;;16.94;59.40;99264.56;4975842;28;1314;-70
2021/01/24 06:05:19;;;;;;;;;;;;;;;17.04;59.66;99281.38;4973934;28;1536;-69
2021/01/24 06:07:45;;;;;;;;;;;;;;;17.04;59.17;99285.78;4939464;29;1397;-71
2021/01/24 06:10:12;;;;;;;;;;;;;;;17.07;59.21;99264.50;4937444;29;1051;-70
2021/01/24 06:12:47;;;;;;;;;;;;;;;17.05;58.93;99292.72;4934336;29;1336;-70
2021/01/24 06:15:36;;;;;;;;;;;;;;;17.00;59.11;99289.56;4918997;29;2016;-70
2021/01/24 06:18:13;;;;;;;;;;;;;;;16.96;59.15;99296.03;4935573;29;1270;-69
2021/01/24 06:20:56;;;;;;;;;;;;;;;;;;;;;
2021/01/24 06:23:54;;;;;;;;;;;;;;;16.96;58.93;99315.28;4917664;29;1341;-71
2021/01/24 06:27:03;;;;;;;;;;;;;;;16.91;59.11;99317.38;4949009;28;1542;-69
2021/01/24 06:29:36;;;;;;;;;;;;;;;16.93;59.10;99324.22;4974803;28;1356;-70
2021/01/24 06:32:03;;;;;;;;;;;;;;;16.92;58.93;99335.69;4955875;28;769;-70
2021/01/24 06:34:49;;;;;;;;;;;;;;;16.93;58.85;99347.88;4973198;28;1429;-68
2021/01/24 06:49:38;;;;;;;;;;;;;;;16.97;58.56;99363.44;4977708;23;2135;-63
2021/01/24 06:52:18;;;;;;;;;;;;;;;16.95;58.47;99368.84;4973985;28;1091;-63
2021/01/24 06:55:30;;;;;;;;;;;;;;;16.88;58.55;99386.84;4973023;28;2319;-64
2021/01/24 06:58:43;;;;;;;;;;;;;;;16.90;58.55;99402.53;4949753;29;1333;-63
2021/01/24 07:04:25;;;;;;;;;;;;;;;16.87;58.57;99400.91;4969108;28;1782;-65
2021/01/24 07:07:26;;;;;;;;;;;;;;;16.85;58.40;99387.03;4935268;28;1406;-64
2021/01/24 07:14:06;;;;;;;;;;;;;;;16.91;58.16;99420.81;4969511;28;1246;-65
2021/01/24 07:17:14;;;;;;;;;;;;;;;16.92;58.03;99416.41;4954750;28;1906;-64
2021/01/24 07:20:33;;;;;;;;;;;;;;;16.93;58.09;99454.91;4918108;28;1578;-62
2021/01/24 07:23:00;;;;;;;;;;;;;;;16.82;58.42;99457.44;4970284;28;1281;-64
2021/01/24 07:25:26;;;;;;;;;;;;;;;16.88;58.14;99464.91;4971138;28;1087;-63
2021/01/24 07:27:53;;;;;;;;;;;;;;;16.84;58.03;99469.53;4970906;28;1226;-62
2021/01/24 07:30:23;;;;;;;;;;;;;;;16.90;58.01;99460.38;4970865;28;1088;-63
2021/01/24 07:32:50;;;;;;;;;;;;;;;16.85;58.09;99478.25;4970631;28;1304;-64
2021/01/24 07:35:16;;;;;;;;;;;;;;;16.87;58.14;99484.28;4971064;28;1915;-63
2021/01/24 07:37:55;;;;;;;;;;;;;;;16.89;58.19;99506.03;4970638;28;1364;-64
2021/01/24 07:40:21;;;;;;;;;;;;;;;16.89;58.58;99514.78;4970746;28;1051;-66
2021/01/24 07:42:51;;;;;;;;;;;;;;;16.90;58.25;99505.91;4953442;28;1352;-64
2021/01/24 07:45:17;;;;;;;;;;;;;;;16.89;58.14;99490.25;4970517;28;1154;-66
2021/01/24 07:47:43;;;;;;;;;;;;;;;16.87;58.22;99508.75;4970552;28;1328;-63
2021/01/24 07:50:11;;;;;;;;;;;;;;;16.79;58.43;99516.34;4970836;28;1051;-64
2021/01/24 07:52:37;;;;;;;;;;;;;;;16.84;58.26;99545.78;4970141;28;1233;-64
2021/01/24 07:55:04;;;;;;;;;;;;;;;16.83;58.51;99544.13;4952771;28;1906;-64
2021/01/24 07:57:31;;;;;;;;;;;;;;;16.84;58.17;99560.75;4970006;28;1312;-64
2021/01/24 07:59:57;;;;;;;;;;;;;;;16.82;58.34;99571.38;4969825;28;1011;-63
2021/01/24 08:02:26;;;;;;;;;;;;;;;16.81;58.53;99588.06;4952074;28;1209;-65
2021/01/24 08:04:52;;;;;;;;;;;;;;;16.78;58.77;99583.03;4969545;28;1646;-64
2021/01/24 08:07:19;;;;;;;;;;;;;;;16.82;58.40;99600.28;4951396;28;1623;-66
2021/01/24 08:09:47;;;;;;;;;;;;;;;16.78;58.65;99609.31;4969715;28;1203;-65
2021/01/24 08:12:13;;;;;;;;;;;;;;;16.77;58.70;99628.69;4951968;28;1210;-63
2021/01/24 08:14:40;;;;;;;;;;;;;;;16.77;58.81;99639.22;4969949;28;1217;-63
2021/01/24 08:17:08;;;;;;;;;;;;;;;16.80;58.77;99648.69;4969968;28;1977;-65
2021/01/24 08:19:35;;;;;;;;;;;;;;;16.77;59.24;99646.25;4969940;28;1261;-63
2021/01/24 08:22:02;;;;;;;;;;;;;;;16.73;59.27;99650.88;4952532;28;740;-63
2021/01/24 08:24:28;;;;;;;;;;;;;;;16.78;59.16;99705.78;4968969;28;1243;-65
2021/01/24 08:26:55;;;;;;;;;;;;;;;16.85;58.99;99728.13;4969217;28;1071;-62
2021/01/24 08:29:22;;;;;;;;;;;;;;;16.77;59.26;99739.16;4969720;28;1315;-61
2021/01/24 08:31:48;;;;;;;;;;;;;;;16.80;59.10;99727.59;4969735;28;822;-65
2021/01/24 08:34:16;;;;;;;;;;;;;;;16.76;59.45;99740.09;4969031;28;1221;-64
2021/01/24 08:36:43;;;;;;;;;;;;;;;16.74;59.72;99749.88;4969463;28;1911;-65
2021/01/24 08:39:09;;;;;;;;;;;;;;;16.74;59.67;99759.53;4969495;28;1290;-64
2021/01/24 08:41:37;;;;;;;;;;;;;;;16.80;59.50;99781.03;4969547;28;775;-64
2021/01/24 08:44:04;;;;;;;;;;;;;;;16.79;59.97;99797.75;4941825;28;1552;-63
2021/01/24 08:46:35;;;;;;;;;;;;;;;16.78;59.66;99803.09;4968068;28;767;-64
2021/01/24 08:49:03;;;;;;;;;;;;;;;16.79;59.47;99808.28;4968308;28;1620;-65
2021/01/24 08:51:42;;;;;;;;;;;;;;;16.79;59.88;99831.09;4951736;28;1449;-65
2021/01/24 08:54:28;;;;;;;;;;;;;;;16.77;59.72;99843.50;4951888;28;1532;-62
2021/01/24 08:57:13;;;;;;;;;;;;;;;16.80;59.49;99859.09;4969958;28;1990;-63
2021/01/24 08:59:49;;;;;;;;;;;;;;;16.79;59.70;99868.75;4969779;28;1229;-63
2021/01/24 09:02:27;;;;;;;;;;;;;;;16.79;59.56;99879.28;4969973;28;763;-64
2021/01/24 09:04:53;;;;;;;;;;;;;;;16.79;59.67;99892.44;4970047;28;1512;-64
2021/01/24 09:07:19;;;;;;;;;;;;;;;16.78;60.06;99903.03;4968258;28;1591;-64
2021/01/24 09:09:46;;;;;;;;;;;;;;;16.78;60.01;99909.16;4968116;28;1611;-65
2021/01/24 09:12:19;;;;;;;;;;;;;;;16.76;60.08;99907.56;4950594;28;850;-65
2021/01/24 09:14:48;;;;;;;;;;;;;;;16.76;60.38;99921.56;4968316;28;1320;-64
2021/01/24 09:17:19;;;;;;;;;;;;;;;16.75;60.23;99914.59;4952164;28;832;-63
2021/01/24 09:19:46;;;;;;;;;;;;;;;16.78;60.39;99940.72;4969942;28;1214;-67
2021/01/24 09:22:16;;;;;;;;;;;;;;;16.76;60.54;99937.34;4948091;28;1209;-67
2021/01/24 09:24:45;;;;;;;;;;;;;;;16.75;60.76;99946.16;4969771;28;1431;-67
2021/01/24 09:27:12;;;;;;;;;;;;;;;16.78;60.65;99955.63;4966259;28;1245;-66
2021/01/24 09:29:40;;;;;;;;;;;;;;;16.79;60.40;99967.84;4945871;28;1372;-64
2021/01/24 09:32:07;;;;;;;;;;;;;;;16.77;60.53;99970.59;4961155;28;1293;-64
2021/01/24 09:34:34;;;;;;;;;;;;;;;16.75;60.81;99972.47;4942206;28;1295;-64
2021/01/24 09:37:00;;;;;;;;;;;;;;;16.77;60.73;99985.53;4957431;28;1922;-64
2021/01/24 09:39:27;;;;;;;;;;;;;;;16.76;60.84;99989.09;4955498;28;1432;-65
2021/01/24 09:41:53;;;;;;;;;;;;;;;16.73;61.01;99995.38;4941243;28;1519;-66
2021/01/24 09:44:20;;;;;;;;;;;;;;;16.76;60.98;99995.19;4960292;28;1453;-65
2021/01/24 09:46:47;;;;;;;;;;;;;;;16.75;60.85;99998.75;4961072;28;1251;-65
2021/01/24 09:49:14;;;;;;;;;;;;;;;16.78;60.79;99998.56;4964851;28;1317;-65
2021/01/24 09:51:43;;;;;;;;;;;;;;;16.92;61.82;100009.13;4950846;28;1355;-68
2021/01/24 09:54:10;;;;;;;;;;;;;;;16.83;61.20;100007.06;4964569;28;1649;-66
2021/01/24 09:56:36;;;;;;;;;;;;;;;16.93;61.94;100013.44;4958793;28;1922;-65
2021/01/24 09:59:02;;;;;;;;;;;;;;;17.07;61.64;100015.22;4945288;29;1617;-65
2021/01/24 10:01:35;;;;;;;;;;;;;;;17.13;61.94;100019.25;4970697;28;1263;-69
2021/01/24 10:04:01;;;;;;;;;;;;;;;17.24;62.35;100016.81;4973324;28;1230;-65
2021/01/24 10:06:28;;;;;;;;;;;;;;;17.13;61.28;100024.53;4973115;28;847;-64
2021/01/24 10:08:54;;;;;;;;;;;;;;;16.90;61.53;100023.31;4972715;28;1182;-64
2021/01/24 10:11:21;;;;;;;;;;;;;;;16.87;61.65;100029.59;4971916;28;1006;-65
2021/01/24 10:13:48;;;;;;;;;;;;;;;16.80;61.74;100028.28;4971701;28;1468;-64
2021/01/24 10:16:14;;;;;;;;;;;;;;;16.78;61.99;100032.75;4972322;28;1910;-66
2021/01/24 10:18:41;;;;;;;;;;;;;;;16.78;61.52;100040.66;4972273;28;1328;-65
2021/01/24 10:21:08;;;;;;;;;;;;;;;16.77;61.71;100043.38;4972232;28;1108;-65
2021/01/24 10:23:34;;;;;;;;;;;;;;;16.76;61.64;100052.22;4972168;28;1234;-64
2021/01/24 10:26:01;;;;;;;;;;;;;;;16.76;61.74;100049.56;4972734;28;1187;-66
2021/01/24 10:28:28;;;;;;;;;;;;;;;16.74;61.82;100062.84;4972143;28;1226;-64
2021/01/24 10:30:54;;;;;;;;;;;;;;;16.77;61.73;100062.66;4972113;28;1051;-65
2021/01/24 10:33:21;;;;;;;;;;;;;;;16.76;61.38;100068.84;4972482;28;1250;-64
2021/01/24 10:35:48;;;;;;;;;;;;;;;16.78;61.39;100072.22;4955030;28;1914;-64
2021/01/24 10:38:15;;;;;;;;;;;;;;;16.76;61.17;100083.78;4972118;28;1264;-64
2021/01/24 10:40:42;;;;;;;;;;;;;;;16.74;61.42;100083.03;4971969;28;1345;-66
2021/01/24 10:43:09;;;;;;;;;;;;;;;16.79;61.12;100076.56;4970765;28;1245;-65
2021/01/24 10:45:36;;;;;;;;;;;;;;;16.80;61.04;100080.88;4972620;28;1062;-64
2021/01/24 10:48:03;;;;;;;;;;;;;;;16.79;61.05;100073.91;4972270;28;1317;-64
2021/01/24 10:50:30;;;;;;;;;;;;;;;16.78;61.07;100085.38;4972600;28;1050;-64
2021/01/24 10:52:56;;;;;;;;;;;;;;;16.76;61.09;100092.50;4972388;28;1194;-63
2021/01/24 10:55:24;;;;;;;;;;;;;;;16.76;60.81;100097.78;4972289;28;1910;-65
2021/01/24 10:57:50;;;;;;;;;;;;;;;16.73;60.80;100103.22;4954661;28;1242;-65
2021/01/24 11:00:17;;;;;;;;;;;;;;;16.75;60.90;100098.69;4972136;28;1081;-65
2021/01/24 11:02:43;;;;;;;;;;;;;;;16.74;60.89;100102.28;4971548;28;1249;-65
2021/01/24 11:05:10;;;;;;;;;;;;;;;16.77;60.88;100090.72;4954381;28;1168;-63
2021/01/24 11:07:37;;;;;;;;;;;;;;;16.73;60.75;100082.16;4971630;28;1328;-64
2021/01/24 11:10:04;;;;;;;;;;;;;;;16.74;60.87;100086.50;4971604;28;984;-65
2021/01/24 11:12:30;;;;;;;;;;;;;;;16.72;61.04;100077.84;4971078;28;1197;-64
2021/01/24 11:14:57;;;;;;;;;;;;;;;16.71;60.92;100081.44;4971849;28;1151;-64
2021/01/24 11:17:23;;;;;;;;;;;;;;;16.71;60.80;100086.69;4971390;28;1915;-65
2021/01/24 11:19:53;;;;;;;;;;;;;;;16.70;60.72;100087.63;4953755;28;1407;-64
2021/01/24 11:22:19;;;;;;;;;;;;;;;16.68;61.09;100080.75;4971322;28;1084;-64
2021/01/24 11:24:46;;;;;;;;;;;;;;;16.70;60.93;100079.72;4953422;28;1373;-64
2021/01/24 11:27:13;;;;;;;;;;;;;;;16.72;60.79;100088.34;4970965;28;831;-65
2021/01/24 11:29:40;;;;;;;;;;;;;;;16.66;60.65;100079.97;4953659;28;1324;-65
2021/01/24 11:32:07;;;;;;;;;;;;;;;16.66;60.51;100083.47;4970988;28;803;-65
2021/01/24 11:34:34;;;;;;;;;;;;;;;16.66;60.63;100090.50;4971129;28;1314;-65
2021/01/24 11:37:01;;;;;;;;;;;;;;;16.66;60.67;100093.97;4971192;28;1906;-65
2021/01/24 11:39:28;;;;;;;;;;;;;;;16.65;60.68;100105.44;4971269;28;1234;-64
2021/01/24 11:41:54;;;;;;;;;;;;;;;16.74;61.27;100111.97;4970172;28;1527;-65
2021/01/24 11:44:21;;;;;;;;;;;;;;;16.67;57.26;100106.19;4970653;28;1269;-66
2021/01/24 11:46:47;;;;;;;;;;;;;;;16.27;56.92;100094.47;4970785;28;795;-65
2021/01/24 11:49:14;;;;;;;;;;;;;;;16.13;56.32;100097.03;4968764;28;1606;-66
2021/01/24 11:51:40;;;;;;;;;;;;;;;15.95;56.58;100099.81;4960787;28;1416;-63
2021/01/24 11:54:07;;;;;;;;;;;;;;;15.52;55.36;100115.28;4940150;28;1672;-65
2021/01/24 11:56:33;;;;;;;;;;;;;;;15.44;55.40;100099.03;4969667;28;1956;-63
2021/01/24 11:59:00;;;;;;;;;;;;;;;15.31;54.59;100095.41;4947451;28;1218;-66
2021/01/24 12:01:27;;;;;;;;;;;;;;;15.38;54.09;100094.13;4933597;29;1480;-65
2021/01/24 12:03:53;;;;;;;;;;;;;;;15.39;54.01;100103.69;4948262;28;1335;-67
2021/01/24 12:06:20;;;;;;;;;;;;;;;15.52;54.62;100101.31;4935187;28;1398;-64
2021/01/24 12:08:46;;;;;;;;;;;;;;;15.81;53.45;100108.44;4962923;28;1175;-66
2021/01/24 12:11:13;;;;;;;;;;;;;;;15.69;52.95;100107.34;4949180;28;875;-66
2021/01/24 12:13:40;;;;;;;;;;;;;;;15.56;52.73;100111.59;4922536;28;1243;-64
2021/01/24 12:16:06;;;;;;;;;;;;;;;15.77;52.58;100115.69;4970658;28;1982;-64
2021/01/24 12:18:32;;;;;;;;;;;;;;;15.76;52.19;100121.00;4969794;28;1221;-64
2021/01/24 12:20:59;;;;;;;;;;;;;;;15.92;52.01;100105.25;4969586;28;1586;-63
2021/01/24 12:23:25;;;;;;;;;;;;;;;15.99;52.31;100111.88;4969013;28;1275;-64
2021/01/24 12:25:51;;;;;;;;;;;;;;;16.15;51.14;100107.44;4960101;28;1084;-67
2021/01/24 12:28:18;;;;;;;;;;;;;;;16.27;51.17;100098.88;4968146;28;1238;-65
2021/01/24 12:30:44;;;;;;;;;;;;;;;16.28;49.08;100108.44;4936605;28;1184;-69
2021/01/24 12:33:12;;;;;;;;;;;;;;;16.31;50.45;100100.41;4966139;28;1242;-74
2021/01/24 12:35:39;;;;;;;;;;;;;;;16.30;52.31;100111.84;4933207;29;1968;-69
2021/01/24 12:38:06;;;;;;;;;;;;;;;16.34;53.08;100110.72;4953324;28;1215;-67
2021/01/24 12:40:32;;;;;;;;;;;;;;;16.41;53.18;100104.22;4968012;28;1063;-65
2021/01/24 12:42:59;;;;;;;;;;;;;;;16.34;52.99;100097.59;4952328;28;1198;-65
2021/01/24 12:45:26;;;;;;;;;;;;;;;16.21;53.63;100093.94;4970116;28;1366;-64
2021/01/24 12:47:52;;;;;;;;;;;;;;;16.34;53.79;100095.81;4951785;28;1503;-67
2021/01/24 12:50:19;;;;;;;;;;;;;;;16.35;53.92;100089.59;4963492;28;1280;-65
2021/01/24 12:52:46;;;;;;;;;;;;;;;16.33;53.66;100085.38;4967085;28;1472;-67
2021/01/24 12:55:12;;;;;;;;;;;;;;;16.33;53.40;100098.50;4948537;29;1985;-66
2021/01/24 12:57:39;;;;;;;;;;;;;;;16.31;53.72;100095.13;4969227;28;1344;-66
2021/01/24 13:00:06;;;;;;;;;;;;;;;16.27;53.85;100098.88;4969971;28;1120;-65
2021/01/24 13:02:33;;;;;;;;;;;;;;;16.24;53.96;100107.78;4969191;28;1394;-66
2021/01/24 13:04:59;;;;;;;;;;;;;;;16.32;54.03;100110.81;4952526;28;1634;-66
2021/01/24 13:07:26;;;;;;;;;;;;;;;16.29;54.31;100110.97;4969202;28;1249;-67
2021/01/24 13:09:52;;;;;;;;;;;;;;;16.25;54.09;100103.38;4969659;28;1153;-66
2021/01/24 13:12:19;;;;;;;;;;;;;;;16.30;54.21;100101.31;4969340;28;983;-67
2021/01/24 13:14:46;;;;;;;;;;;;;;;16.31;54.46;100098.63;4969453;28;1237;-68
2021/01/24 13:17:12;;;;;;;;;;;;;;;16.24;54.42;100097.25;4968153;28;1914;-68
2021/01/24 13:19:38;;;;;;;;;;;;;;;16.22;54.29;100093.03;4969688;28;1217;-67
2021/01/24 13:22:05;;;;;;;;;;;;;;;16.28;54.49;100090.91;4973184;28;1153;-68
2021/01/24 13:24:32;;;;;;;;;;;;;;;16.23;54.68;100092.94;4955837;28;1291;-66